sensor_id;sensor_type;location;lat;lon;timestamp;pressure;altitude;pressure_sealevel;temperature;humidity
70198;BME280;57582;-34.876;138.628;2023-09-19T00:00:38;100716;;;19.00;62.83
70198;BME280;57582;-34.876;138.628;2023-09-19T00:03:37;100703;;;19.02;62.53
70198;BME280;57582;-34.876;138.628;2023-09-19T00:06:37;100696;;;19.04;62.93
70198;BME280;57582;-34.876;138.628;2023-09-19T00:09:37;100700;;;19.17;61.54
70198;BME280;57582;-34.876;138.628;2023-09-19T00:12:42;100693;;;19.22;60.42
70198;BME280;57582;-34.876;138.628;2023-09-19T00:15:38;100701;;;19.39;60.58
70198;BME280;57582;-34.876;138.628;2023-09-19T00:18:37;100690;;;19.58;60.49
70198;BME280;57582;-34.876;138.628;2023-09-19T00:21:37;100690;;;19.62;59.61
70198;BME280;57582;-34.876;138.628;2023-09-19T00:24:37;100679;;;19.67;58.91
70198;BME280;57582;-34.876;138.628;2023-09-19T00:27:38;100684;;;19.85;59.90
70198;BME280;57582;-34.876;138.628;2023-09-19T00:30:37;100690;;;20.11;61.49
70198;BME280;57582;-34.876;138.628;2023-09-19T00:33:37;100689;;;20.39;60.64
70198;BME280;57582;-34.876;138.628;2023-09-19T00:36:37;100678;;;20.77;56.18
70198;BME280;57582;-34.876;138.628;2023-09-19T00:39:37;100681;;;20.97;56.08
70198;BME280;57582;-34.876;138.628;2023-09-19T00:42:38;100672;;;21.30;55.43
70198;BME280;57582;-34.876;138.628;2023-09-19T00:45:37;100675;;;21.61;54.02
70198;BME280;57582;-34.876;138.628;2023-09-19T00:48:39;100671;;;21.72;51.92
70198;BME280;57582;-34.876;138.628;2023-09-19T00:51:37;100651;;;21.73;52.25
70198;BME280;57582;-34.876;138.628;2023-09-19T00:54:37;100662;;;21.70;52.80
70198;BME280;57582;-34.876;138.628;2023-09-19T00:57:37;100644;;;21.77;52.29
70198;BME280;57582;-34.876;138.628;2023-09-19T01:00:37;100650;;;21.74;50.82
70198;BME280;57582;-34.876;138.628;2023-09-19T01:03:37;100666;;;21.92;50.12
70198;BME280;57582;-34.876;138.628;2023-09-19T01:06:37;100669;;;21.67;50.98
70198;BME280;57582;-34.876;138.628;2023-09-19T01:09:37;100659;;;21.76;50.41
70198;BME280;57582;-34.876;138.628;2023-09-19T01:21:55;100631;;;21.55;50.63
70198;BME280;57582;-34.876;138.628;2023-09-19T01:30:39;100634;;;21.81;48.00
70198;BME280;57582;-34.876;138.628;2023-09-19T01:36:38;100638;;;22.02;45.51
70198;BME280;57582;-34.876;138.628;2023-09-19T01:39:37;100626;;;22.13;46.47
70198;BME280;57582;-34.876;138.628;2023-09-19T01:42:41;100633;;;22.27;44.55
70198;BME280;57582;-34.876;138.628;2023-09-19T01:48:38;100620;;;22.18;43.38
70198;BME280;57582;-34.876;138.628;2023-09-19T01:51:42;100617;;;22.24;42.49
70198;BME280;57582;-34.876;138.628;2023-09-19T01:54:40;100612;;;22.18;42.34
70198;BME280;57582;-34.876;138.628;2023-09-19T01:57:48;100604;;;22.46;40.00
70198;BME280;57582;-34.876;138.628;2023-09-19T02:00:38;100615;;;22.59;40.38
70198;BME280;57582;-34.876;138.628;2023-09-19T02:03:37;100592;;;22.58;40.36
70198;BME280;57582;-34.876;138.628;2023-09-19T02:06:40;100592;;;22.65;39.09
70198;BME280;57582;-34.876;138.628;2023-09-19T02:09:37;100595;;;22.65;38.58
70198;BME280;57582;-34.876;138.628;2023-09-19T02:12:38;100586;;;22.58;39.06
70198;BME280;57582;-34.876;138.628;2023-09-19T02:15:37;100592;;;22.79;39.19
70198;BME280;57582;-34.876;138.628;2023-09-19T02:18:37;100585;;;22.96;38.81
70198;BME280;57582;-34.876;138.628;2023-09-19T02:21:37;100582;;;23.02;38.87
70198;BME280;57582;-34.876;138.628;2023-09-19T02:24:38;100586;;;23.13;38.59
70198;BME280;57582;-34.876;138.628;2023-09-19T02:27:37;100589;;;23.23;37.10
70198;BME280;57582;-34.876;138.628;2023-09-19T02:30:37;100585;;;23.34;37.94
70198;BME280;57582;-34.876;138.628;2023-09-19T02:33:37;100577;;;23.18;36.95
70198;BME280;57582;-34.876;138.628;2023-09-19T02:36:38;100569;;;23.24;37.63
70198;BME280;57582;-34.876;138.628;2023-09-19T02:39:37;100565;;;23.20;37.23
70198;BME280;57582;-34.876;138.628;2023-09-19T02:42:37;100562;;;23.30;38.20
70198;BME280;57582;-34.876;138.628;2023-09-19T02:45:37;100573;;;23.36;36.21
70198;BME280;57582;-34.876;138.628;2023-09-19T02:48:38;100571;;;23.49;37.81
70198;BME280;57582;-34.876;138.628;2023-09-19T02:51:37;100580;;;23.61;38.59
70198;BME280;57582;-34.876;138.628;2023-09-19T02:54:37;100574;;;23.54;34.85
70198;BME280;57582;-34.876;138.628;2023-09-19T02:57:37;100573;;;23.63;36.21
70198;BME280;57582;-34.876;138.628;2023-09-19T03:00:38;100580;;;23.78;36.68
70198;BME280;57582;-34.876;138.628;2023-09-19T03:03:37;100589;;;23.82;34.75
70198;BME280;57582;-34.876;138.628;2023-09-19T03:06:37;100583;;;23.81;34.79
70198;BME280;57582;-34.876;138.628;2023-09-19T03:09:37;100587;;;23.70;35.43
70198;BME280;57582;-34.876;138.628;2023-09-19T03:12:38;100576;;;23.75;35.79
70198;BME280;57582;-34.876;138.628;2023-09-19T03:15:40;100579;;;23.69;36.38
70198;BME280;57582;-34.876;138.628;2023-09-19T03:18:37;100573;;;23.74;35.60
70198;BME280;57582;-34.876;138.628;2023-09-19T03:21:37;100563;;;23.89;34.28
70198;BME280;57582;-34.876;138.628;2023-09-19T03:24:38;100560;;;23.92;34.08
70198;BME280;57582;-34.876;138.628;2023-09-19T03:27:37;100564;;;24.05;35.54
70198;BME280;57582;-34.876;138.628;2023-09-19T03:30:37;100559;;;24.17;34.11
70198;BME280;57582;-34.876;138.628;2023-09-19T03:33:37;100567;;;23.91;33.73
70198;BME280;57582;-34.876;138.628;2023-09-19T03:36:38;100560;;;23.67;34.24
70198;BME280;57582;-34.876;138.628;2023-09-19T03:39:37;100549;;;23.81;33.53
70198;BME280;57582;-34.876;138.628;2023-09-19T03:42:38;100541;;;23.84;33.93
70198;BME280;57582;-34.876;138.628;2023-09-19T03:45:37;100545;;;23.93;34.63
70198;BME280;57582;-34.876;138.628;2023-09-19T03:48:38;100553;;;23.78;34.71
70198;BME280;57582;-34.876;138.628;2023-09-19T03:51:37;100541;;;23.81;34.42
70198;BME280;57582;-34.876;138.628;2023-09-19T03:54:37;100539;;;24.00;33.99
70198;BME280;57582;-34.876;138.628;2023-09-19T03:57:37;100550;;;24.10;33.06
70198;BME280;57582;-34.876;138.628;2023-09-19T04:00:38;100549;;;24.12;32.53
70198;BME280;57582;-34.876;138.628;2023-09-19T04:03:37;100545;;;24.17;31.98
70198;BME280;57582;-34.876;138.628;2023-09-19T04:06:37;100557;;;24.16;32.06
70198;BME280;57582;-34.876;138.628;2023-09-19T04:09:37;100547;;;24.14;32.55
70198;BME280;57582;-34.876;138.628;2023-09-19T04:12:39;100554;;;24.06;31.66
70198;BME280;57582;-34.876;138.628;2023-09-19T04:15:37;100540;;;24.02;31.22
70198;BME280;57582;-34.876;138.628;2023-09-19T04:18:37;100527;;;23.99;32.13
70198;BME280;57582;-34.876;138.628;2023-09-19T04:21:37;100533;;;24.16;31.49
70198;BME280;57582;-34.876;138.628;2023-09-19T04:24:38;100517;;;24.10;31.43
70198;BME280;57582;-34.876;138.628;2023-09-19T04:27:37;100517;;;24.08;31.58
70198;BME280;57582;-34.876;138.628;2023-09-19T04:30:38;100517;;;24.10;31.99
70198;BME280;57582;-34.876;138.628;2023-09-19T04:33:37;100505;;;24.12;31.11
70198;BME280;57582;-34.876;138.628;2023-09-19T04:36:38;100513;;;24.17;30.71
70198;BME280;57582;-34.876;138.628;2023-09-19T04:39:37;100506;;;24.30;31.26
70198;BME280;57582;-34.876;138.628;2023-09-19T04:42:38;100501;;;24.40;30.78
70198;BME280;57582;-34.876;138.628;2023-09-19T04:45:38;100501;;;24.28;31.14
70198;BME280;57582;-34.876;138.628;2023-09-19T04:48:38;100493;;;24.12;30.43
70198;BME280;57582;-34.876;138.628;2023-09-19T04:51:37;100502;;;24.10;30.70
70198;BME280;57582;-34.876;138.628;2023-09-19T04:54:37;100504;;;23.99;30.88
70198;BME280;57582;-34.876;138.628;2023-09-19T04:57:37;100496;;;23.67;30.66
70198;BME280;57582;-34.876;138.628;2023-09-19T05:00:38;100502;;;23.64;31.35
70198;BME280;57582;-34.876;138.628;2023-09-19T05:03:37;100493;;;23.58;31.80
70198;BME280;57582;-34.876;138.628;2023-09-19T05:06:37;100489;;;23.78;31.73
70198;BME280;57582;-34.876;138.628;2023-09-19T05:09:37;100482;;;23.83;31.36
70198;BME280;57582;-34.876;138.628;2023-09-19T05:12:38;100485;;;23.83;31.42
70198;BME280;57582;-34.876;138.628;2023-09-19T05:15:37;100472;;;23.74;31.23
70198;BME280;57582;-34.876;138.628;2023-09-19T05:18:37;100482;;;23.60;31.37
70198;BME280;57582;-34.876;138.628;2023-09-19T05:21:37;100473;;;23.53;32.08
70198;BME280;57582;-34.876;138.628;2023-09-19T05:24:38;100472;;;23.51;32.22
70198;BME280;57582;-34.876;138.628;2023-09-19T05:27:37;100471;;;23.56;32.69
70198;BME280;57582;-34.876;138.628;2023-09-19T05:30:37;100475;;;23.64;32.88
70198;BME280;57582;-34.876;138.628;2023-09-19T05:33:37;100475;;;23.57;32.25
70198;BME280;57582;-34.876;138.628;2023-09-19T05:36:38;100477;;;23.52;32.77
70198;BME280;57582;-34.876;138.628;2023-09-19T05:39:37;100468;;;23.70;32.98
70198;BME280;57582;-34.876;138.628;2023-09-19T05:42:38;100468;;;23.48;32.55
70198;BME280;57582;-34.876;138.628;2023-09-19T05:45:37;100470;;;23.58;33.30
70198;BME280;57582;-34.876;138.628;2023-09-19T05:48:38;100457;;;23.70;33.33
70198;BME280;57582;-34.876;138.628;2023-09-19T05:51:37;100456;;;23.79;32.81
70198;BME280;57582;-34.876;138.628;2023-09-19T05:54:37;100455;;;23.72;32.32
70198;BME280;57582;-34.876;138.628;2023-09-19T05:57:37;100449;;;23.91;32.88
70198;BME280;57582;-34.876;138.628;2023-09-19T06:00:38;100449;;;23.88;32.62
70198;BME280;57582;-34.876;138.628;2023-09-19T06:03:37;100454;;;23.91;32.92
70198;BME280;57582;-34.876;138.628;2023-09-19T06:06:37;100453;;;23.77;33.42
70198;BME280;57582;-34.876;138.628;2023-09-19T06:09:37;100451;;;23.66;33.88
70198;BME280;57582;-34.876;138.628;2023-09-19T06:12:38;100447;;;23.64;33.99
70198;BME280;57582;-34.876;138.628;2023-09-19T06:15:38;100453;;;23.71;33.76
70198;BME280;57582;-34.876;138.628;2023-09-19T06:18:37;100448;;;23.51;33.29
70198;BME280;57582;-34.876;138.628;2023-09-19T06:21:37;100450;;;23.47;34.00
70198;BME280;57582;-34.876;138.628;2023-09-19T06:24:38;100451;;;23.51;33.76
70198;BME280;57582;-34.876;138.628;2023-09-19T06:27:38;100455;;;23.57;33.98
70198;BME280;57582;-34.876;138.628;2023-09-19T06:30:38;100457;;;23.30;34.41
70198;BME280;57582;-34.876;138.628;2023-09-19T06:33:38;100454;;;23.13;35.03
70198;BME280;57582;-34.876;138.628;2023-09-19T06:36:38;100463;;;23.02;34.86
70198;BME280;57582;-34.876;138.628;2023-09-19T06:39:37;100455;;;22.95;35.58
70198;BME280;57582;-34.876;138.628;2023-09-19T06:42:37;100449;;;22.87;36.09
70198;BME280;57582;-34.876;138.628;2023-09-19T06:45:37;100453;;;23.07;34.84
70198;BME280;57582;-34.876;138.628;2023-09-19T06:48:38;100444;;;23.00;35.03
70198;BME280;57582;-34.876;138.628;2023-09-19T06:51:37;100451;;;22.98;34.92
70198;BME280;57582;-34.876;138.628;2023-09-19T06:54:38;100451;;;22.80;34.93
70198;BME280;57582;-34.876;138.628;2023-09-19T06:57:38;100452;;;22.90;35.15
70198;BME280;57582;-34.876;138.628;2023-09-19T07:00:38;100435;;;22.71;35.08
70198;BME280;57582;-34.876;138.628;2023-09-19T07:03:38;100450;;;22.67;35.42
70198;BME280;57582;-34.876;138.628;2023-09-19T07:06:37;100448;;;22.78;35.93
70198;BME280;57582;-34.876;138.628;2023-09-19T07:09:37;100450;;;22.72;35.43
70198;BME280;57582;-34.876;138.628;2023-09-19T07:12:38;100454;;;22.73;35.55
70198;BME280;57582;-34.876;138.628;2023-09-19T07:15:38;100456;;;22.76;35.64
70198;BME280;57582;-34.876;138.628;2023-09-19T07:18:37;100451;;;22.66;36.09
70198;BME280;57582;-34.876;138.628;2023-09-19T07:21:37;100450;;;22.49;36.32
70198;BME280;57582;-34.876;138.628;2023-09-19T07:24:38;100441;;;22.35;36.73
70198;BME280;57582;-34.876;138.628;2023-09-19T07:27:38;100438;;;22.22;36.94
70198;BME280;57582;-34.876;138.628;2023-09-19T07:30:38;100438;;;22.32;37.11
70198;BME280;57582;-34.876;138.628;2023-09-19T07:33:38;100435;;;22.30;37.42
70198;BME280;57582;-34.876;138.628;2023-09-19T07:36:38;100445;;;22.21;37.67
70198;BME280;57582;-34.876;138.628;2023-09-19T07:39:38;100437;;;22.14;38.10
70198;BME280;57582;-34.876;138.628;2023-09-19T07:42:38;100439;;;22.13;38.38
70198;BME280;57582;-34.876;138.628;2023-09-19T07:45:38;100446;;;22.00;38.79
70198;BME280;57582;-34.876;138.628;2023-09-19T07:48:38;100438;;;21.72;39.56
70198;BME280;57582;-34.876;138.628;2023-09-19T07:51:38;100440;;;21.79;39.90
70198;BME280;57582;-34.876;138.628;2023-09-19T07:54:38;100440;;;21.76;39.79
70198;BME280;57582;-34.876;138.628;2023-09-19T07:57:38;100457;;;21.48;40.42
70198;BME280;57582;-34.876;138.628;2023-09-19T08:00:39;100453;;;21.34;41.00
70198;BME280;57582;-34.876;138.628;2023-09-19T08:03:38;100454;;;21.40;41.20
70198;BME280;57582;-34.876;138.628;2023-09-19T08:06:38;100456;;;21.30;41.58
70198;BME280;57582;-34.876;138.628;2023-09-19T08:09:38;100447;;;21.23;41.70
70198;BME280;57582;-34.876;138.628;2023-09-19T08:12:39;100453;;;21.06;42.35
70198;BME280;57582;-34.876;138.628;2023-09-19T08:15:42;100448;;;21.11;42.43
70198;BME280;57582;-34.876;138.628;2023-09-19T08:18:38;100435;;;21.13;42.61
70198;BME280;57582;-34.876;138.628;2023-09-19T08:21:38;100436;;;20.99;42.92
70198;BME280;57582;-34.876;138.628;2023-09-19T08:24:38;100433;;;20.99;43.15
70198;BME280;57582;-34.876;138.628;2023-09-19T08:27:38;100446;;;20.90;43.28
70198;BME280;57582;-34.876;138.628;2023-09-19T08:30:38;100440;;;20.94;43.38
70198;BME280;57582;-34.876;138.628;2023-09-19T08:33:38;100441;;;20.87;43.51
70198;BME280;57582;-34.876;138.628;2023-09-19T08:36:38;100438;;;20.96;43.53
70198;BME280;57582;-34.876;138.628;2023-09-19T08:39:38;100432;;;20.75;43.93
70198;BME280;57582;-34.876;138.628;2023-09-19T08:42:54;100436;;;20.69;44.36
70198;BME280;57582;-34.876;138.628;2023-09-19T08:45:38;100452;;;20.59;44.59
70198;BME280;57582;-34.876;138.628;2023-09-19T08:48:42;100443;;;20.55;44.76
70198;BME280;57582;-34.876;138.628;2023-09-19T08:51:42;100453;;;20.42;45.30
70198;BME280;57582;-34.876;138.628;2023-09-19T08:54:38;100448;;;20.47;45.51
70198;BME280;57582;-34.876;138.628;2023-09-19T08:57:38;100444;;;20.46;45.68
70198;BME280;57582;-34.876;138.628;2023-09-19T09:00:38;100448;;;20.37;46.02
70198;BME280;57582;-34.876;138.628;2023-09-19T09:03:38;100439;;;20.16;46.58
70198;BME280;57582;-34.876;138.628;2023-09-19T09:06:38;100445;;;20.10;46.86
70198;BME280;57582;-34.876;138.628;2023-09-19T09:09:38;100438;;;20.16;46.66
70198;BME280;57582;-34.876;138.628;2023-09-19T09:12:38;100443;;;20.34;46.30
70198;BME280;57582;-34.876;138.628;2023-09-19T09:15:38;100436;;;20.35;46.46
70198;BME280;57582;-34.876;138.628;2023-09-19T09:18:38;100443;;;20.52;46.29
70198;BME280;57582;-34.876;138.628;2023-09-19T09:21:38;100443;;;20.65;46.12
70198;BME280;57582;-34.876;138.628;2023-09-19T09:27:38;100440;;;20.86;45.97
70198;BME280;57582;-34.876;138.628;2023-09-19T09:30:38;100437;;;21.05;45.72
70198;BME280;57582;-34.876;138.628;2023-09-19T09:33:38;100436;;;21.06;45.79
70198;BME280;57582;-34.876;138.628;2023-09-19T09:36:39;100439;;;21.03;45.94
70198;BME280;57582;-34.876;138.628;2023-09-19T09:39:38;100439;;;21.01;46.07
70198;BME280;57582;-34.876;138.628;2023-09-19T09:42:38;100451;;;21.00;46.20
70198;BME280;57582;-34.876;138.628;2023-09-19T09:45:38;100441;;;21.04;46.21
70198;BME280;57582;-34.876;138.628;2023-09-19T09:48:38;100426;;;20.97;46.34
70198;BME280;57582;-34.876;138.628;2023-09-19T09:51:38;100433;;;20.93;46.46
70198;BME280;57582;-34.876;138.628;2023-09-19T09:54:38;100444;;;20.82;46.81
70198;BME280;57582;-34.876;138.628;2023-09-19T09:57:38;100441;;;20.68;47.01
70198;BME280;57582;-34.876;138.628;2023-09-19T10:00:51;100450;;;20.63;47.12
70198;BME280;57582;-34.876;138.628;2023-09-19T10:03:38;100447;;;20.53;47.34
70198;BME280;57582;-34.876;138.628;2023-09-19T10:06:41;100458;;;20.58;47.31
70198;BME280;57582;-34.876;138.628;2023-09-19T10:09:45;100460;;;20.54;47.32
70198;BME280;57582;-34.876;138.628;2023-09-19T10:12:39;100468;;;20.46;47.39
70198;BME280;57582;-34.876;138.628;2023-09-19T10:15:38;100473;;;20.40;47.37
70198;BME280;57582;-34.876;138.628;2023-09-19T10:18:38;100476;;;20.12;48.00
70198;BME280;57582;-34.876;138.628;2023-09-19T10:21:38;100480;;;20.12;48.13
70198;BME280;57582;-34.876;138.628;2023-09-19T10:24:39;100478;;;20.10;48.21
70198;BME280;57582;-34.876;138.628;2023-09-19T10:27:38;100479;;;19.88;48.74
70198;BME280;57582;-34.876;138.628;2023-09-19T10:30:38;100488;;;19.93;48.61
70198;BME280;57582;-34.876;138.628;2023-09-19T10:33:38;100500;;;19.94;48.71
70198;BME280;57582;-34.876;138.628;2023-09-19T10:36:38;100497;;;19.92;48.74
70198;BME280;57582;-34.876;138.628;2023-09-19T10:39:39;100519;;;19.89;48.96
70198;BME280;57582;-34.876;138.628;2023-09-19T10:42:38;100515;;;19.65;49.62
70198;BME280;57582;-34.876;138.628;2023-09-19T10:45:38;100512;;;19.73;49.46
70198;BME280;57582;-34.876;138.628;2023-09-19T10:48:39;100527;;;19.82;49.19
70198;BME280;57582;-34.876;138.628;2023-09-19T10:51:39;100537;;;19.80;49.24
70198;BME280;57582;-34.876;138.628;2023-09-19T10:54:38;100540;;;19.72;49.60
70198;BME280;57582;-34.876;138.628;2023-09-19T10:57:38;100542;;;19.80;49.54
70198;BME280;57582;-34.876;138.628;2023-09-19T11:00:55;100551;;;19.79;49.77
70198;BME280;57582;-34.876;138.628;2023-09-19T11:03:38;100545;;;19.75;49.94
70198;BME280;57582;-34.876;138.628;2023-09-19T11:06:38;100554;;;19.71;50.13
70198;BME280;57582;-34.876;138.628;2023-09-19T11:09:54;100567;;;19.42;50.98
70198;BME280;57582;-34.876;138.628;2023-09-19T11:21:38;100572;;;19.30;51.64
70198;BME280;57582;-34.876;138.628;2023-09-19T11:24:39;100567;;;19.14;52.39
70198;BME280;57582;-34.876;138.628;2023-09-19T11:27:39;100567;;;19.22;52.15
70198;BME280;57582;-34.876;138.628;2023-09-19T11:30:39;100567;;;19.29;52.20
70198;BME280;57582;-34.876;138.628;2023-09-19T11:33:38;100571;;;19.13;52.64
70198;BME280;57582;-34.876;138.628;2023-09-19T11:36:39;100574;;;19.12;52.80
70198;BME280;57582;-34.876;138.628;2023-09-19T11:39:38;100581;;;19.08;53.22
70198;BME280;57582;-34.876;138.628;2023-09-19T11:42:42;100574;;;19.10;53.32
70198;BME280;57582;-34.876;138.628;2023-09-19T11:48:39;100579;;;19.10;53.47
70198;BME280;57582;-34.876;138.628;2023-09-19T11:51:40;100577;;;19.14;53.66
70198;BME280;57582;-34.876;138.628;2023-09-19T11:54:38;100573;;;19.09;53.71
70198;BME280;57582;-34.876;138.628;2023-09-19T11:57:38;100579;;;19.03;53.96
70198;BME280;57582;-34.876;138.628;2023-09-19T12:00:38;100580;;;18.97;54.12
70198;BME280;57582;-34.876;138.628;2023-09-19T12:03:38;100577;;;19.02;54.14
70198;BME280;57582;-34.876;138.628;2023-09-19T12:06:39;100580;;;19.05;54.00
70198;BME280;57582;-34.876;138.628;2023-09-19T12:09:39;100581;;;18.91;54.42
70198;BME280;57582;-34.876;138.628;2023-09-19T12:12:39;100587;;;18.96;54.36
70198;BME280;57582;-34.876;138.628;2023-09-19T12:15:38;100595;;;18.86;54.84
70198;BME280;57582;-34.876;138.628;2023-09-19T12:18:38;100592;;;18.85;54.90
70198;BME280;57582;-34.876;138.628;2023-09-19T12:21:38;100590;;;18.80;55.15
70198;BME280;57582;-34.876;138.628;2023-09-19T12:24:39;100595;;;18.73;55.53
70198;BME280;57582;-34.876;138.628;2023-09-19T12:27:42;100585;;;18.73;55.64
70198;BME280;57582;-34.876;138.628;2023-09-19T12:30:38;100599;;;18.75;55.62
70198;BME280;57582;-34.876;138.628;2023-09-19T12:33:38;100592;;;18.73;55.78
70198;BME280;57582;-34.876;138.628;2023-09-19T12:36:39;100595;;;18.54;56.34
70198;BME280;57582;-34.876;138.628;2023-09-19T12:39:39;100594;;;18.55;56.39
70198;BME280;57582;-34.876;138.628;2023-09-19T12:42:38;100591;;;18.50;56.65
70198;BME280;57582;-34.876;138.628;2023-09-19T12:45:46;100590;;;18.42;56.97
70198;BME280;57582;-34.876;138.628;2023-09-19T12:48:39;100595;;;18.37;57.12
70198;BME280;57582;-34.876;138.628;2023-09-19T12:51:38;100594;;;18.36;57.18
70198;BME280;57582;-34.876;138.628;2023-09-19T12:54:39;100594;;;18.27;57.33
70198;BME280;57582;-34.876;138.628;2023-09-19T12:57:38;100595;;;18.09;58.14
70198;BME280;57582;-34.876;138.628;2023-09-19T13:00:40;100600;;;18.16;57.97
70198;BME280;57582;-34.876;138.628;2023-09-19T13:03:38;100587;;;18.06;58.09
70198;BME280;57582;-34.876;138.628;2023-09-19T13:06:38;100591;;;17.83;58.91
70198;BME280;57582;-34.876;138.628;2023-09-19T13:09:38;100595;;;17.98;58.74
70198;BME280;57582;-34.876;138.628;2023-09-19T13:12:39;100598;;;17.99;58.60
70198;BME280;57582;-34.876;138.628;2023-09-19T13:15:51;100600;;;18.01;58.77
70198;BME280;57582;-34.876;138.628;2023-09-19T13:18:42;100597;;;17.99;58.78
70198;BME280;57582;-34.876;138.628;2023-09-19T13:21:38;100595;;;18.01;58.86
70198;BME280;57582;-34.876;138.628;2023-09-19T13:24:40;100605;;;18.00;59.13
70198;BME280;57582;-34.876;138.628;2023-09-19T13:27:38;100602;;;17.82;60.79
70198;BME280;57582;-34.876;138.628;2023-09-19T13:30:38;100592;;;18.04;60.63
70198;BME280;57582;-34.876;138.628;2023-09-19T13:33:46;100594;;;18.05;60.09
70198;BME280;57582;-34.876;138.628;2023-09-19T13:36:39;100583;;;18.39;59.37
70198;BME280;57582;-34.876;138.628;2023-09-19T13:39:38;100588;;;18.59;58.39
70198;BME280;57582;-34.876;138.628;2023-09-19T13:42:38;100581;;;18.73;58.17
70198;BME280;57582;-34.876;138.628;2023-09-19T13:45:38;100578;;;18.96;57.52
70198;BME280;57582;-34.876;138.628;2023-09-19T13:48:39;100583;;;19.12;57.40
70198;BME280;57582;-34.876;138.628;2023-09-19T13:51:38;100579;;;19.24;57.00
70198;BME280;57582;-34.876;138.628;2023-09-19T13:54:38;100576;;;19.39;56.86
70198;BME280;57582;-34.876;138.628;2023-09-19T13:57:38;100584;;;19.57;56.98
70198;BME280;57582;-34.876;138.628;2023-09-19T14:00:39;100586;;;19.69;56.83
70198;BME280;57582;-34.876;138.628;2023-09-19T14:03:39;100580;;;19.71;57.40
70198;BME280;57582;-34.876;138.628;2023-09-19T14:06:41;100592;;;19.67;56.49
70198;BME280;57582;-34.876;138.628;2023-09-19T14:09:38;100588;;;19.51;57.53
70198;BME280;57582;-34.876;138.628;2023-09-19T14:12:39;100587;;;19.47;57.31
70198;BME280;57582;-34.876;138.628;2023-09-19T14:15:38;100576;;;19.15;56.92
70198;BME280;57582;-34.876;138.628;2023-09-19T14:18:38;100575;;;19.14;57.20
70198;BME280;57582;-34.876;138.628;2023-09-19T14:21:38;100579;;;19.26;56.79
70198;BME280;57582;-34.876;138.628;2023-09-19T14:24:39;100578;;;19.34;56.60
70198;BME280;57582;-34.876;138.628;2023-09-19T14:27:38;100580;;;19.33;56.41
70198;BME280;57582;-34.876;138.628;2023-09-19T14:30:38;100584;;;19.03;57.10
70198;BME280;57582;-34.876;138.628;2023-09-19T14:33:38;100578;;;18.99;57.23
70198;BME280;57582;-34.876;138.628;2023-09-19T14:36:39;100575;;;18.91;57.45
70198;BME280;57582;-34.876;138.628;2023-09-19T14:39:38;100571;;;18.80;57.44
70198;BME280;57582;-34.876;138.628;2023-09-19T14:42:39;100580;;;18.79;57.76
70198;BME280;57582;-34.876;138.628;2023-09-19T14:45:38;100583;;;18.84;57.72
70198;BME280;57582;-34.876;138.628;2023-09-19T14:48:39;100584;;;19.01;56.97
70198;BME280;57582;-34.876;138.628;2023-09-19T14:51:38;100576;;;18.80;57.56
70198;BME280;57582;-34.876;138.628;2023-09-19T14:54:38;100577;;;18.77;57.28
70198;BME280;57582;-34.876;138.628;2023-09-19T14:57:38;100577;;;18.72;57.35
70198;BME280;57582;-34.876;138.628;2023-09-19T15:00:39;100578;;;18.47;58.38
70198;BME280;57582;-34.876;138.628;2023-09-19T15:03:39;100576;;;18.45;58.45
70198;BME280;57582;-34.876;138.628;2023-09-19T15:06:38;100570;;;18.52;58.42
70198;BME280;57582;-34.876;138.628;2023-09-19T15:09:38;100578;;;18.32;58.93
70198;BME280;57582;-34.876;138.628;2023-09-19T15:12:39;100575;;;18.31;59.03
70198;BME280;57582;-34.876;138.628;2023-09-19T15:15:38;100565;;;18.32;59.08
70198;BME280;57582;-34.876;138.628;2023-09-19T15:18:39;100565;;;18.52;58.69
70198;BME280;57582;-34.876;138.628;2023-09-19T15:21:39;100563;;;18.32;58.85
70198;BME280;57582;-34.876;138.628;2023-09-19T15:24:39;100554;;;18.40;58.75
70198;BME280;57582;-34.876;138.628;2023-09-19T15:27:38;100552;;;18.35;58.71
70198;BME280;57582;-34.876;138.628;2023-09-19T15:30:38;100551;;;18.47;58.61
70198;BME280;57582;-34.876;138.628;2023-09-19T15:33:39;100537;;;18.38;58.64
70198;BME280;57582;-34.876;138.628;2023-09-19T15:36:39;100554;;;18.30;59.08
70198;BME280;57582;-34.876;138.628;2023-09-19T15:39:38;100550;;;18.13;59.35
70198;BME280;57582;-34.876;138.628;2023-09-19T15:42:38;100546;;;18.19;59.46
70198;BME280;57582;-34.876;138.628;2023-09-19T15:45:38;100549;;;18.12;59.58
70198;BME280;57582;-34.876;138.628;2023-09-19T15:48:39;100546;;;18.06;59.91
70198;BME280;57582;-34.876;138.628;2023-09-19T15:51:38;100544;;;18.08;59.83
70198;BME280;57582;-34.876;138.628;2023-09-19T15:54:38;100539;;;18.03;60.12
70198;BME280;57582;-34.876;138.628;2023-09-19T15:57:38;100537;;;18.04;60.25
70198;BME280;57582;-34.876;138.628;2023-09-19T16:00:39;100541;;;17.91;60.87
70198;BME280;57582;-34.876;138.628;2023-09-19T16:03:39;100535;;;17.84;61.12
70198;BME280;57582;-34.876;138.628;2023-09-19T16:06:38;100531;;;17.80;61.38
70198;BME280;57582;-34.876;138.628;2023-09-19T16:09:38;100528;;;17.62;62.17
70198;BME280;57582;-34.876;138.628;2023-09-19T16:12:39;100527;;;17.71;62.07
70198;BME280;57582;-34.876;138.628;2023-09-19T16:15:41;100529;;;17.80;61.84